Time,TemperatureF,DewpointF,PressureIn,WindDirection,WindDirectionDegrees,WindSpeedMPH,WindSpeedGustMPH,Humidity,HourlyPrecipIn,Conditions,Clouds,dailyrainin,SoftwareType,DateUTC
2013-07-18 00:01:00,54.0,51.0,-100.00,North,-999,-999.0,-999.0,90,-99.99,,,-99.99,,2013-07-18 07:01:00,
2013-07-18 00:22:00,54.0,52.0,-100.00,North,-999,-999.0,-999.0,91,-99.99,,,-99.99,,2013-07-18 07:22:00,
2013-07-18 00:32:00,54.0,52.0,-100.00,North,-999,-999.0,-999.0,91,-99.99,,,-99.99,,2013-07-18 07:32:00,
2013-07-18 00:42:00,54.0,52.0,-100.00,North,-999,-999.0,-999.0,91,-99.99,,,-99.99,,2013-07-18 07:42:00,
2013-07-18 03:52:00,50.0,49.0,-100.00,North,-999,-999.0,-999.0,96,-99.99,,,-99.99,,2013-07-18 10:52:00,
2013-07-18 04:01:00,50.0,49.0,-100.00,North,-999,-999.0,-999.0,96,-99.99,,,-99.99,,2013-07-18 11:01:00,
2013-07-18 04:22:00,50.0,49.0,-100.00,North,-999,-999.0,-999.0,96,-99.99,,,-99.99,,2013-07-18 11:22:00,
2013-07-18 04:32:00,50.0,49.0,-100.00,North,-999,-999.0,-999.0,96,-99.99,,,-99.99,,2013-07-18 11:32:00,
2013-07-18 04:43:00,50.0,49.0,-100.00,North,-999,-999.0,-999.0,96,-99.99,,,-99.99,,2013-07-18 11:43:00,
2013-07-18 04:52:00,50.0,49.0,-100.00,North,-999,-999.0,-999.0,96,-99.99,,,-99.99,,2013-07-18 11:52:00,
2013-07-18 05:01:00,50.0,49.0,-100.00,North,-999,-999.0,-999.0,96,-99.99,,,-99.99,,2013-07-18 12:01:00,
2013-07-18 05:22:00,49.0,48.0,-100.00,North,-999,-999.0,-999.0,96,-99.99,,,-99.99,,2013-07-18 12:22:00,
2013-07-18 05:32:00,48.0,47.0,-100.00,North,-999,-999.0,-999.0,96,-99.99,,,-99.99,,2013-07-18 12:32:00,
2013-07-18 05:42:00,47.0,46.0,-100.00,North,-999,-999.0,-999.0,95,-99.99,,,-99.99,,2013-07-18 12:42:00,
2013-07-18 05:52:00,47.0,46.0,-100.00,North,-999,-999.0,-999.0,95,-99.99,,,-99.99,,2013-07-18 12:52:00,
2013-07-18 06:01:00,47.0,46.0,-100.00,North,-999,-999.0,-999.0,96,-99.99,,,-99.99,,2013-07-18 13:01:00,
2013-07-18 06:11:00,47.0,46.0,-100.00,North,-999,-999.0,-999.0,96,-99.99,,,-99.99,,2013-07-18 13:11:00,
2013-07-18 06:32:00,47.0,46.0,-100.00,North,-999,-999.0,-999.0,95,-99.99,,,-99.99,,2013-07-18 13:32:00,
2013-07-18 06:53:00,47.0,46.0,-100.00,North,-999,-999.0,-999.0,95,-99.99,,,-99.99,,2013-07-18 13:53:00,
2013-07-18 07:22:00,47.0,46.0,-100.00,North,-999,-999.0,-999.0,95,-99.99,,,-99.99,,2013-07-18 14:22:00,
2013-07-18 07:32:00,47.0,46.0,-100.00,North,-999,-999.0,-999.0,93,-99.99,,,-99.99,,2013-07-18 14:32:00,
2013-07-18 07:53:00,48.0,45.0,-100.00,North,-999,-999.0,-999.0,90,-99.99,,,-99.99,,2013-07-18 14:53:00,
2013-07-18 08:11:00,49.0,45.0,-100.00,North,-999,-999.0,-999.0,87,-99.99,,,-99.99,,2013-07-18 15:11:00,
2013-07-18 08:53:00,52.0,47.0,-100.00,North,-999,-999.0,-999.0,82,-99.99,,,-99.99,,2013-07-18 15:53:00,
2013-07-18 09:01:00,54.0,48.0,-100.00,North,-999,-999.0,-999.0,78,-99.99,,,-99.99,,2013-07-18 16:01:00,
2013-07-18 09:11:00,54.0,48.0,-100.00,North,-999,-999.0,-999.0,78,-99.99,,,-99.99,,2013-07-18 16:11:00,
2013-07-18 09:22:00,56.0,47.0,-100.00,North,-999,-999.0,-999.0,70,-99.99,,,-99.99,,2013-07-18 16:22:00,
2013-07-18 09:31:00,59.0,46.0,-100.00,North,-999,-999.0,-999.0,62,-99.99,,,-99.99,,2013-07-18 16:31:00,
2013-07-18 09:42:00,60.0,40.0,-100.00,North,-999,-999.0,-999.0,47,-99.99,,,-99.99,,2013-07-18 16:42:00,
2013-07-18 09:52:00,60.0,40.0,-100.00,North,-999,-999.0,-999.0,47,-99.99,,,-99.99,,2013-07-18 16:52:00,
2013-07-18 10:01:00,61.0,41.0,-100.00,North,-999,-999.0,-999.0,46,-99.99,,,-99.99,,2013-07-18 17:01:00,
2013-07-18 10:11:00,61.0,41.0,-100.00,North,-999,-999.0,-999.0,46,-99.99,,,-99.99,,2013-07-18 17:11:00,
2013-07-18 10:22:00,63.0,41.0,-100.00,North,-999,-999.0,-999.0,45,-99.99,,,-99.99,,2013-07-18 17:22:00,
2013-07-18 10:43:00,65.0,45.0,-100.00,North,-999,-999.0,-999.0,49,-99.99,,,-99.99,,2013-07-18 17:43:00,
2013-07-18 10:52:00,65.0,45.0,-100.00,North,-999,-999.0,-999.0,49,-99.99,,,-99.99,,2013-07-18 17:52:00,
2013-07-18 11:22:00,68.0,44.0,-100.00,North,-999,-999.0,-999.0,42,-99.99,,,-99.99,,2013-07-18 18:22:00,
2013-07-18 11:32:00,69.0,44.0,-100.00,North,-999,-999.0,-999.0,41,-99.99,,,-99.99,,2013-07-18 18:32:00,
2013-07-18 11:43:00,70.0,43.0,-100.00,North,-999,-999.0,-999.0,38,-99.99,,,-99.99,,2013-07-18 18:43:00,
2013-07-18 11:52:00,70.0,43.0,-100.00,North,-999,-999.0,-999.0,38,-99.99,,,-99.99,,2013-07-18 18:52:00,
2013-07-18 12:01:00,71.0,42.0,-100.00,North,-999,-999.0,-999.0,34,-99.99,,,-99.99,,2013-07-18 19:01:00,
2013-07-18 12:11:00,71.0,42.0,-100.00,North,-999,-999.0,-999.0,34,-99.99,,,-99.99,,2013-07-18 19:11:00,
2013-07-18 12:22:00,73.0,40.0,-100.00,North,-999,-999.0,-999.0,31,-99.99,,,-99.99,,2013-07-18 19:22:00,
2013-07-18 12:43:00,74.0,41.0,-100.00,North,-999,-999.0,-999.0,30,-99.99,,,-99.99,,2013-07-18 19:43:00,
2013-07-18 12:53:00,76.0,40.0,-100.00,North,-999,-999.0,-999.0,27,-99.99,,,-99.99,,2013-07-18 19:53:00,
2013-07-18 13:01:00,77.0,39.0,-100.00,North,-999,-999.0,-999.0,26,-99.99,,,-99.99,,2013-07-18 20:01:00,
2013-07-18 13:11:00,77.0,39.0,-100.00,North,-999,-999.0,-999.0,26,-99.99,,,-99.99,,2013-07-18 20:11:00,
2013-07-18 13:21:00,78.0,41.0,-100.00,North,-999,-999.0,-999.0,26,-99.99,,,-99.99,,2013-07-18 20:21:00,
2013-07-18 13:31:00,78.0,41.0,-100.00,North,-999,-999.0,-999.0,26,-99.99,,,-99.99,,2013-07-18 20:31:00,
2013-07-18 13:43:00,79.0,40.0,-100.00,North,-999,-999.0,-999.0,24,-99.99,,,-99.99,,2013-07-18 20:43:00,
2013-07-18 13:52:00,79.0,40.0,-100.00,North,-999,-999.0,-999.0,24,-99.99,,,-99.99,,2013-07-18 20:52:00,
2013-07-18 14:01:00,80.0,41.0,-100.00,North,-999,-999.0,-999.0,25,-99.99,,,-99.99,,2013-07-18 21:01:00,
2013-07-18 14:22:00,80.0,42.0,-100.00,North,-999,-999.0,-999.0,26,-99.99,,,-99.99,,2013-07-18 21:22:00,
2013-07-18 14:32:00,79.0,41.0,-100.00,North,-999,-999.0,-999.0,25,-99.99,,,-99.99,,2013-07-18 21:32:00,
2013-07-18 15:01:00,80.0,44.0,-100.00,North,-999,-999.0,-999.0,28,-99.99,,,-99.99,,2013-07-18 22:01:00,
2013-07-18 15:11:00,80.0,44.0,-100.00,North,-999,-999.0,-999.0,28,-99.99,,,-99.99,,2013-07-18 22:11:00,
2013-07-18 15:22:00,80.0,43.0,-100.00,North,-999,-999.0,-999.0,27,-99.99,,,-99.99,,2013-07-18 22:22:00,
2013-07-18 15:32:00,80.0,43.0,-100.00,North,-999,-999.0,-999.0,27,-99.99,,,-99.99,,2013-07-18 22:32:00,
2013-07-18 15:42:00,78.0,45.0,-100.00,North,-999,-999.0,-999.0,31,-99.99,,,-99.99,,2013-07-18 22:42:00,
2013-07-18 15:53:00,78.0,45.0,-100.00,North,-999,-999.0,-999.0,31,-99.99,,,-99.99,,2013-07-18 22:53:00,
2013-07-18 16:01:00,80.0,46.0,-100.00,North,-999,-999.0,-999.0,30,-99.99,,,-99.99,,2013-07-18 23:01:00,
2013-07-18 16:22:00,79.0,46.0,-100.00,North,-999,-999.0,-999.0,31,-99.99,,,-99.99,,2013-07-18 23:22:00,
2013-07-18 16:32:00,80.0,47.0,-100.00,North,-999,-999.0,-999.0,31,-99.99,,,-99.99,,2013-07-18 23:32:00,
2013-07-18 16:42:00,80.0,45.0,-100.00,North,-999,-999.0,-999.0,29,-99.99,,,-99.99,,2013-07-18 23:42:00,
2013-07-18 16:52:00,80.0,45.0,-100.00,North,-999,-999.0,-999.0,29,-99.99,,,-99.99,,2013-07-18 23:52:00,
2013-07-18 17:11:00,79.0,44.0,-100.00,North,-999,-999.0,-999.0,29,-99.99,,,-99.99,,2013-07-19 00:11:00,
2013-07-18 17:22:00,78.0,43.0,-100.00,North,-999,-999.0,-999.0,28,-99.99,,,-99.99,,2013-07-19 00:22:00,
2013-07-18 17:32:00,78.0,43.0,-100.00,North,-999,-999.0,-999.0,28,-99.99,,,-99.99,,2013-07-19 00:32:00,
2013-07-18 17:42:00,78.0,42.0,-100.00,North,-999,-999.0,-999.0,28,-99.99,,,-99.99,,2013-07-19 00:42:00,
2013-07-18 17:52:00,78.0,42.0,-100.00,North,-999,-999.0,-999.0,28,-99.99,,,-99.99,,2013-07-19 00:52:00,
2013-07-18 18:11:00,77.0,42.0,-100.00,North,-999,-999.0,-999.0,29,-99.99,,,-99.99,,2013-07-19 01:11:00,
2013-07-18 18:21:00,76.0,40.0,-100.00,North,-999,-999.0,-999.0,28,-99.99,,,-99.99,,2013-07-19 01:21:00,
2013-07-18 18:32:00,76.0,39.0,-100.00,North,-999,-999.0,-999.0,27,-99.99,,,-99.99,,2013-07-19 01:32:00,
2013-07-18 18:42:00,75.0,37.0,-100.00,North,-999,-999.0,-999.0,25,-99.99,,,-99.99,,2013-07-19 01:42:00,
2013-07-18 18:52:00,75.0,37.0,-100.00,North,-999,-999.0,-999.0,25,-99.99,,,-99.99,,2013-07-19 01:52:00,
2013-07-18 19:01:00,74.0,35.0,-100.00,North,-999,-999.0,-999.0,24,-99.99,,,-99.99,,2013-07-19 02:01:00,
2013-07-18 19:11:00,74.0,35.0,-100.00,North,-999,-999.0,-999.0,24,-99.99,,,-99.99,,2013-07-19 02:11:00,
2013-07-18 19:22:00,73.0,34.0,-100.00,North,-999,-999.0,-999.0,24,-99.99,,,-99.99,,2013-07-19 02:22:00,
2013-07-18 19:32:00,72.0,36.0,-100.00,North,-999,-999.0,-999.0,26,-99.99,,,-99.99,,2013-07-19 02:32:00,
2013-07-18 19:52:00,72.0,35.0,-100.00,North,-999,-999.0,-999.0,26,-99.99,,,-99.99,,2013-07-19 02:52:00,
2013-07-18 20:11:00,71.0,35.0,-100.00,North,-999,-999.0,-999.0,27,-99.99,,,-99.99,,2013-07-19 03:11:00,
2013-07-18 20:22:00,70.0,34.0,-100.00,North,-999,-999.0,-999.0,27,-99.99,,,-99.99,,2013-07-19 03:22:00,
2013-07-18 20:32:00,68.0,34.0,-100.00,North,-999,-999.0,-999.0,28,-99.99,,,-99.99,,2013-07-19 03:32:00,
2013-07-18 20:42:00,68.0,34.0,-100.00,North,-999,-999.0,-999.0,28,-99.99,,,-99.99,,2013-07-19 03:42:00,
2013-07-18 20:52:00,67.0,35.0,-100.00,North,-999,-999.0,-999.0,30,-99.99,,,-99.99,,2013-07-19 03:52:00,
2013-07-18 21:02:00,66.0,34.0,-100.00,North,-999,-999.0,-999.0,31,-99.99,,,-99.99,,2013-07-19 04:02:00,
2013-07-18 21:11:00,66.0,34.0,-100.00,North,-999,-999.0,-999.0,31,-99.99,,,-99.99,,2013-07-19 04:11:00,
2013-07-18 21:22:00,64.0,35.0,-100.00,North,-999,-999.0,-999.0,34,-99.99,,,-99.99,,2013-07-19 04:22:00,
2013-07-18 21:32:00,64.0,35.0,-100.00,North,-999,-999.0,-999.0,34,-99.99,,,-99.99,,2013-07-19 04:32:00,
2013-07-18 21:43:00,62.0,37.0,-100.00,North,-999,-999.0,-999.0,40,-99.99,,,-99.99,,2013-07-19 04:43:00,
2013-07-18 21:52:00,62.0,37.0,-100.00,North,-999,-999.0,-999.0,40,-99.99,,,-99.99,,2013-07-19 04:52:00,
2013-07-18 22:02:00,61.0,38.0,-100.00,North,-999,-999.0,-999.0,42,-99.99,,,-99.99,,2013-07-19 05:02:00,
2013-07-18 22:11:00,61.0,38.0,-100.00,North,-999,-999.0,-999.0,42,-99.99,,,-99.99,,2013-07-19 05:11:00,
2013-07-18 22:22:00,59.0,38.0,-100.00,North,-999,-999.0,-999.0,45,-99.99,,,-99.99,,2013-07-19 05:22:00,
2013-07-18 22:32:00,59.0,38.0,-100.00,North,-999,-999.0,-999.0,46,-99.99,,,-99.99,,2013-07-19 05:32:00,
2013-07-18 22:53:00,58.0,38.0,-100.00,North,-999,-999.0,-999.0,47,-99.99,,,-99.99,,2013-07-19 05:53:00,
2013-07-18 23:01:00,58.0,38.0,-100.00,North,-999,-999.0,-999.0,47,-99.99,,,-99.99,,2013-07-19 06:01:00,
2013-07-18 23:11:00,58.0,38.0,-100.00,North,-999,-999.0,-999.0,47,-99.99,,,-99.99,,2013-07-19 06:11:00,
2013-07-18 23:22:00,57.0,38.0,-100.00,North,-999,-999.0,-999.0,49,-99.99,,,-99.99,,2013-07-19 06:22:00,
2013-07-18 23:52:00,55.0,37.0,-100.00,North,-999,-999.0,-999.0,50,-99.99,,,-99.99,,2013-07-19 06:52:00,